Time;durP1;ratioP1;P1;durP2;ratioP2;P2;SDS_P1;SDS_P2;PMS_P1;PMS_P2;Temp;Humidity;BMP_temperature;BMP_pressure;BME280_temperature;BME280_humidity;BME280_pressure;Samples;Min_cycle;Max_cycle;Signal;HPM_P1;HPM_P2
2022/07/11 00:00:03;;;;;;;2.73;1.00;;;16.90;82.30;;;;;;7373642;19;20415;-80
2022/07/11 00:02:34;;;;;;;5.00;1.13;;;17.00;82.50;;;;;;7382272;19;20369;-80
2022/07/11 00:05:04;;;;;;;1.80;1.00;;;17.00;82.40;;;;;;7381637;19;20364;-80
2022/07/11 00:07:34;;;;;;;1.03;0.90;;;17.10;82.00;;;;;;7385265;19;20411;-81
2022/07/11 00:10:04;;;;;;;2.97;1.80;;;17.00;82.40;;;;;;7383179;19;20404;-79
2022/07/11 00:12:36;;;;;;;1.97;1.10;;;17.10;82.40;;;;;;7379159;19;20376;-81
2022/07/11 00:15:06;;;;;;;1.33;1.00;;;17.10;82.40;;;;;;7377525;19;20406;-82
2022/07/11 00:17:35;;;;;;;2.43;0.80;;;17.20;82.60;;;;;;7379509;19;20432;-80
2022/07/11 00:20:06;;;;;;;1.10;1.00;;;17.30;82.00;;;;;;7381652;19;20420;-82
2022/07/11 00:22:38;;;;;;;2.40;1.00;;;17.30;82.10;;;;;;7383482;19;20408;-82
2022/07/11 00:25:08;;;;;;;1.23;0.80;;;17.40;81.60;;;;;;7377859;19;20368;-81
2022/07/11 00:27:43;;;;;;;1.30;1.20;;;17.50;80.80;;;;;;7383190;19;20376;-81
2022/07/11 00:30:16;;;;;;;2.03;1.00;;;17.40;81.70;;;;;;7376388;19;20387;-81
2022/07/11 00:32:48;;;;;;;1.43;0.70;;;17.40;82.10;;;;;;7383418;19;20403;-81
2022/07/11 00:35:17;;;;;;;1.53;1.10;;;17.30;82.90;;;;;;7386058;19;20776;-82
2022/07/11 00:37:50;;;;;;;1.10;1.00;;;17.30;83.00;;;;;;7384963;19;20364;-81
2022/07/11 00:40:21;;;;;;;3.63;1.30;;;17.40;82.70;;;;;;7380332;19;20368;-81
2022/07/11 00:42:53;;;;;;;1.80;1.07;;;17.20;83.70;;;;;;7381325;19;20377;-81
2022/07/11 00:45:27;;;;;;;2.07;1.40;;;17.50;82.90;;;;;;7375307;19;20815;-79
2022/07/11 00:47:58;;;;;;;1.67;1.10;;;17.40;83.00;;;;;;7382175;19;20402;-80
2022/07/11 00:50:28;;;;;;;1.90;1.30;;;17.40;83.80;;;;;;7379234;19;20764;-81
2022/07/11 00:53:00;;;;;;;3.70;1.43;;;17.40;83.50;;;;;;7376438;19;20383;-81
2022/07/11 00:55:31;;;;;;;5.33;1.30;;;17.40;83.70;;;;;;7381258;19;20380;-81
2022/07/11 00:58:05;;;;;;;1.30;1.20;;;17.10;85.40;;;;;;7377718;19;20443;-81
2022/07/11 01:00:35;;;;;;;1.20;1.10;;;17.10;86.20;;;;;;7376021;19;20414;-80
2022/07/11 01:03:05;;;;;;;3.40;1.30;;;17.00;87.90;;;;;;7370990;19;20446;-81
2022/07/11 01:05:36;;;;;;;1.70;1.00;;;16.90;88.90;;;;;;7384306;19;20376;-81
2022/07/11 01:08:09;;;;;;;1.80;1.60;;;16.90;88.80;;;;;;7385201;19;20380;-79
2022/07/11 01:10:39;;;;;;;1.50;1.40;;;17.00;88.60;;;;;;7374695;19;20431;-81
2022/07/11 01:13:11;;;;;;;1.73;1.37;;;17.00;88.60;;;;;;7381000;19;20400;-79
2022/07/11 01:15:46;;;;;;;2.20;1.60;;;17.10;88.80;;;;;;7374076;19;21007;-80
2022/07/11 01:18:15;;;;;;;2.70;1.37;;;17.20;88.00;;;;;;7379213;19;20380;-81
2022/07/11 01:20:44;;;;;;;2.40;1.90;;;17.40;87.50;;;;;;7381370;19;20400;-81
2022/07/11 01:23:20;;;;;;;3.63;1.80;;;17.20;88.30;;;;;;7376255;19;20412;-81
2022/07/11 01:25:51;;;;;;;1.63;1.53;;;17.10;89.50;;;;;;7379526;19;20719;-81
2022/07/11 01:28:21;;;;;;;2.37;1.80;;;17.00;90.20;;;;;;7377551;19;20393;-80
2022/07/11 01:30:50;;;;;;;1.93;1.73;;;17.00;90.50;;;;;;7377550;19;20942;-82
2022/07/11 01:33:22;;;;;;;1.87;1.77;;;17.00;90.70;;;;;;7381596;19;20376;-80
2022/07/11 01:35:51;;;;;;;2.90;1.80;;;17.20;90.50;;;;;;7382385;19;20451;-80
2022/07/11 01:38:28;;;;;;;2.07;1.60;;;17.20;90.40;;;;;;7381558;19;20392;-80
2022/07/11 01:40:57;;;;;;;1.97;1.77;;;17.10;90.80;;;;;;7380231;19;20411;-80
2022/07/11 01:43:27;;;;;;;2.00;1.73;;;17.00;91.10;;;;;;7381320;19;20374;-81
2022/07/11 01:45:59;;;;;;;2.00;1.80;;;17.00;91.30;;;;;;7374095;19;20430;-81
2022/07/11 01:48:31;;;;;;;2.77;2.57;;;17.10;91.20;;;;;;7379849;19;20388;-81
2022/07/11 01:51:01;;;;;;;5.53;1.80;;;17.20;91.30;;;;;;7375865;19;20914;-80
2022/07/11 01:53:33;;;;;;;2.40;2.00;;;17.30;91.00;;;;;;7380432;19;20428;-81
2022/07/11 01:56:05;;;;;;;3.50;1.67;;;17.30;91.00;;;;;;7378527;19;20443;-81
2022/07/11 01:58:34;;;;;;;4.13;2.30;;;17.30;91.00;;;;;;7377019;19;20831;-80
2022/07/11 02:01:06;;;;;;;2.17;1.97;;;17.40;91.30;;;;;;7373769;19;20971;-81
2022/07/11 02:03:38;;;;;;;3.30;2.10;;;17.40;90.70;;;;;;7381712;19;20368;-81
2022/07/11 02:06:08;;;;;;;4.40;2.07;;;17.40;90.90;;;;;;7376649;19;20379;-79
2022/07/11 02:08:40;;;;;;;3.10;1.80;;;17.20;91.70;;;;;;7379070;19;20398;-81
2022/07/11 02:11:12;;;;;;;2.20;2.00;;;17.20;91.90;;;;;;7377057;19;20902;-81
2022/07/11 02:13:41;;;;;;;2.03;1.73;;;17.30;91.70;;;;;;7381405;19;20392;-81
2022/07/11 02:16:11;;;;;;;4.13;2.37;;;17.40;91.70;;;;;;7370956;19;21040;-81
2022/07/11 02:18:43;;;;;;;2.50;2.30;;;17.50;91.20;;;;;;7380158;19;20433;-81
2022/07/11 02:21:12;;;;;;;2.20;2.10;;;17.50;91.00;;;;;;7372180;19;20473;-81
2022/07/11 02:23:47;;;;;;;2.20;1.83;;;17.50;91.10;;;;;;7377713;19;20416;-81
2022/07/11 02:26:17;;;;;;;2.63;2.07;;;17.60;91.00;;;;;;7375533;19;20376;-83
2022/07/11 02:28:49;;;;;;;1.83;1.60;;;17.60;91.00;;;;;;7371270;19;20412;-82
2022/07/11 02:31:21;;;;;;;2.07;1.97;;;17.70;90.90;;;;;;7374720;19;20446;-83
2022/07/11 02:33:50;;;;;;;3.10;2.53;;;17.80;90.60;;;;;;7381001;19;20483;-83
2022/07/11 02:36:20;;;;;;;3.10;2.80;;;17.80;90.40;;;;;;7377480;19;20412;-83
2022/07/11 02:38:52;;;;;;;5.90;2.77;;;17.80;90.40;;;;;;7380490;19;20418;-83
2022/07/11 02:41:26;;;;;;;2.67;1.97;;;17.90;90.20;;;;;;7382858;19;20376;-83
2022/07/11 02:43:55;;;;;;;3.13;2.43;;;18.00;90.10;;;;;;7382068;19;20942;-82
2022/07/11 02:46:24;;;;;;;2.43;2.17;;;18.00;89.50;;;;;;7374841;19;20461;-83
2022/07/11 02:48:54;;;;;;;3.00;1.93;;;18.10;88.90;;;;;;7383041;19;20663;-82
2022/07/11 02:51:23;;;;;;;3.07;2.37;;;18.20;88.40;;;;;;7373410;19;20471;-83
2022/07/11 02:53:55;;;;;;;5.20;1.87;;;18.20;88.70;;;;;;7375645;19;20408;-82
2022/07/11 02:56:24;;;;;;;2.87;2.00;;;18.00;89.80;;;;;;7379548;19;20373;-83
2022/07/11 02:58:54;;;;;;;2.50;2.03;;;18.10;89.10;;;;;;7372255;19;20866;-82
2022/07/11 03:01:27;;;;;;;2.47;2.20;;;18.20;88.90;;;;;;7372216;19;20372;-82
2022/07/11 03:03:56;;;;;;;3.63;2.30;;;18.10;89.50;;;;;;7377919;19;20384;-80
2022/07/11 03:06:26;;;;;;;2.10;1.90;;;18.10;88.80;;;;;;7376213;19;20376;-81
2022/07/11 03:09:03;;;;;;;2.37;2.17;;;18.10;88.90;;;;;;7378337;19;20407;-81
2022/07/11 03:11:32;;;;;;;2.73;2.30;;;18.20;88.60;;;;;;7380921;19;20376;-81
2022/07/11 03:14:03;;;;;;;2.37;1.77;;;18.20;88.60;;;;;;7371336;19;21062;-81
2022/07/11 03:16:35;;;;;;;2.33;2.17;;;18.20;88.50;;;;;;7373601;19;20475;-82
2022/07/11 03:19:06;;;;;;;2.00;1.80;;;18.30;86.30;;;;;;7381061;19;20400;-82
2022/07/11 03:21:38;;;;;;;2.00;1.63;;;18.40;85.90;;;;;;7380186;19;20384;-82
2022/07/11 03:24:15;;;;;;;2.43;2.00;;;18.40;84.90;;;;;;7374222;19;20952;-81
2022/07/11 03:26:48;;;;;;;4.23;2.93;;;18.50;85.00;;;;;;7375586;19;20410;-81
2022/07/11 03:29:17;;;;;;;2.87;2.30;;;18.50;86.60;;;;;;7372035;19;20419;-81
2022/07/11 03:31:52;;;;;;;3.37;3.00;;;18.30;87.80;;;;;;7378476;19;20965;-82
2022/07/11 03:34:23;;;;;;;2.97;2.77;;;18.20;89.10;;;;;;7384477;19;20404;-82
2022/07/11 03:36:56;;;;;;;3.87;2.67;;;18.20;89.70;;;;;;7385760;19;21037;-81
2022/07/11 03:39:31;;;;;;;2.70;2.50;;;18.10;90.10;;;;;;7389774;19;20368;-80
2022/07/11 03:42:02;;;;;;;3.30;2.30;;;18.10;89.30;;;;;;7385404;19;20904;-81
2022/07/11 03:44:32;;;;;;;3.60;2.50;;;18.20;88.90;;;;;;7382649;19;20422;-80
2022/07/11 03:47:01;;;;;;;2.43;2.23;;;18.40;88.30;;;;;;7384371;19;20493;-80
2022/07/11 03:49:31;;;;;;;2.20;2.00;;;18.50;86.40;;;;;;7385259;19;20469;-79
2022/07/11 03:52:02;;;;;;;2.30;2.10;;;18.60;85.00;;;;;;7386454;19;20372;-80
2022/07/11 03:54:34;;;;;;;2.73;2.43;;;18.60;85.20;;;;;;7385725;19;20451;-79
2022/07/11 03:57:05;;;;;;;2.97;2.77;;;18.50;86.50;;;;;;7383374;19;20530;-80
2022/07/11 03:59:37;;;;;;;2.80;2.23;;;18.40;87.70;;;;;;7378633;19;20403;-80
2022/07/11 04:02:09;;;;;;;2.57;2.37;;;18.50;88.10;;;;;;7360543;19;20376;-80
2022/07/11 04:04:40;;;;;;;3.00;2.27;;;18.50;88.80;;;;;;7380827;19;20377;-80
2022/07/11 04:07:12;;;;;;;2.33;2.13;;;18.40;89.60;;;;;;7377567;19;20830;-80
2022/07/11 04:09:44;;;;;;;3.07;2.50;;;18.40;90.00;;;;;;7382038;19;20419;-79
2022/07/11 04:12:19;;;;;;;2.57;2.37;;;18.30;90.20;;;;;;7374452;19;20640;-80
2022/07/11 04:14:49;;;;;;;2.47;2.27;;;18.20;90.50;;;;;;7379381;19;20396;-80
2022/07/11 04:17:18;;;;;;;3.23;2.17;;;18.20;90.80;;;;;;7378534;19;20845;-79
2022/07/11 04:19:50;;;;;;;3.80;2.77;;;18.30;90.70;;;;;;7380565;19;20364;-79
2022/07/11 04:22:27;;;;;;;3.90;2.80;;;18.40;90.20;;;;;;7378555;19;20434;-80
2022/07/11 04:25:00;;;;;;;3.27;2.27;;;18.60;89.20;;;;;;7366455;19;20964;-79
2022/07/11 04:27:29;;;;;;;2.63;2.43;;;18.80;86.40;;;;;;7367316;19;20415;-80
2022/07/11 04:29:59;;;;;;;3.40;2.47;;;18.80;85.50;;;;;;7373663;19;20532;-81
2022/07/11 04:32:30;;;;;;;2.40;2.20;;;18.80;85.10;;;;;;7364766;19;20416;-79
2022/07/11 04:35:02;;;;;;;6.00;2.40;;;19.00;84.60;;;;;;7371587;19;20372;-79
2022/07/11 04:37:35;;;;;;;3.13;2.63;;;19.00;84.10;;;;;;7369947;19;20369;-79
2022/07/11 04:40:08;;;;;;;3.57;3.20;;;19.00;84.20;;;;;;7383129;19;20866;-73
2022/07/11 04:42:43;;;;;;;4.90;4.10;;;18.90;85.30;;;;;;7382116;19;20408;-73
2022/07/11 04:45:13;;;;;;;6.00;4.67;;;19.00;85.20;;;;;;7373530;19;20731;-73
2022/07/11 04:47:42;;;;;;;3.30;3.00;;;19.10;84.70;;;;;;7381577;19;20989;-73
2022/07/11 04:50:12;;;;;;;3.67;3.10;;;19.20;83.60;;;;;;7376143;19;20463;-73
2022/07/11 04:52:43;;;;;;;3.23;2.93;;;19.20;84.00;;;;;;7377706;19;20408;-73
2022/07/11 04:55:17;;;;;;;3.80;3.30;;;19.20;84.30;;;;;;7379635;19;20396;-73
2022/07/11 04:57:49;;;;;;;4.00;3.13;;;19.40;84.20;;;;;;7379895;19;20494;-73
2022/07/11 05:00:19;;;;;;;3.70;3.40;;;19.30;84.20;;;;;;7372060;19;20761;-73
2022/07/11 05:02:51;;;;;;;4.50;3.47;;;19.20;85.00;;;;;;7383887;19;20726;-73
2022/07/11 05:05:21;;;;;;;4.20;3.70;;;19.10;85.60;;;;;;7380655;19;20691;-73
2022/07/11 05:07:53;;;;;;;4.43;3.73;;;19.20;84.50;;;;;;7383481;19;20870;-73
2022/07/11 05:10:25;;;;;;;7.70;6.47;;;19.30;84.10;;;;;;7371442;19;20984;-78
2022/07/11 05:12:54;;;;;;;9.50;7.97;;;19.40;83.90;;;;;;7374439;19;20380;-79
2022/07/11 05:15:24;;;;;;;11.13;8.03;;;19.40;83.80;;;;;;7380972;19;20395;-80
2022/07/11 05:17:56;;;;;;;5.80;5.10;;;19.50;83.40;;;;;;7381707;19;20376;-79
2022/07/11 05:20:26;;;;;;;6.40;5.40;;;19.40;83.80;;;;;;7380220;19;20394;-81
2022/07/11 05:22:58;;;;;;;9.07;6.17;;;19.50;83.80;;;;;;7381549;19;20380;-80
2022/07/11 05:25:30;;;;;;;22.03;16.97;;;19.60;82.50;;;;;;7386411;19;20397;-81
2022/07/11 05:27:59;;;;;;;12.97;10.80;;;19.80;81.90;;;;;;7381861;19;20431;-81
2022/07/11 05:30:32;;;;;;;5.10;4.07;;;19.80;81.40;;;;;;7386847;19;20985;-80
2022/07/11 05:33:01;;;;;;;5.03;4.53;;;19.90;81.30;;;;;;7385654;19;20473;-81
2022/07/11 05:35:33;;;;;;;5.00;4.20;;;19.90;80.90;;;;;;7386193;19;20933;-80
2022/07/11 05:38:05;;;;;;;3.87;3.57;;;19.90;81.10;;;;;;7385773;19;20376;-79
2022/07/11 05:40:37;;;;;;;4.03;3.73;;;19.70;81.40;;;;;;7384617;19;20364;-79
2022/07/11 05:43:10;;;;;;;4.73;3.60;;;19.50;83.20;;;;;;7381134;19;20785;-79
2022/07/11 05:45:42;;;;;;;5.30;3.00;;;19.50;83.60;;;;;;7384069;19;20384;-79
2022/07/11 05:48:12;;;;;;;7.90;4.30;;;19.60;83.10;;;;;;7385218;19;20482;-79
2022/07/11 05:50:43;;;;;;;4.63;4.23;;;19.60;82.80;;;;;;7379901;19;20356;-79
2022/07/11 05:53:17;;;;;;;4.77;4.10;;;19.80;82.10;;;;;;7379396;19;20944;-79
2022/07/11 05:55:52;;;;;;;4.13;3.50;;;19.90;81.20;;;;;;7384743;19;20389;-80
2022/07/11 05:58:21;;;;;;;4.33;3.80;;;19.80;81.70;;;;;;7374076;19;20443;-79
2022/07/11 06:00:51;;;;;;;4.93;3.23;;;19.60;82.90;;;;;;7384771;19;20396;-79
2022/07/11 06:03:20;;;;;;;3.97;3.57;;;19.80;83.00;;;;;;7377613;19;20368;-79
2022/07/11 06:05:50;;;;;;;4.60;3.50;;;19.90;82.20;;;;;;7380551;19;20406;-79
2022/07/11 06:11:10;;;;;;;3.33;3.03;;;20.20;81.90;;;;;;7378146;19;20376;-73
2022/07/11 06:13:39;;;;;;;5.63;3.73;;;20.30;79.90;;;;;;7372738;19;20384;-73
2022/07/11 06:16:11;;;;;;;3.87;3.57;;;20.50;78.80;;;;;;7365358;19;21048;-73
2022/07/11 06:18:42;;;;;;;4.50;3.30;;;20.50;77.90;;;;;;7370402;19;20414;-73
2022/07/11 06:21:14;;;;;;;3.77;3.47;;;20.60;77.70;;;;;;7380809;19;20381;-73
2022/07/11 06:23:46;;;;;;;4.23;3.40;;;20.70;77.00;;;;;;7381780;19;20459;-73
2022/07/11 06:26:21;;;;;;;4.63;3.30;;;20.90;75.90;;;;;;7378143;19;20408;-73
2022/07/11 06:28:51;;;;;;;5.70;3.47;;;21.10;75.20;;;;;;7370842;19;20384;-74
2022/07/11 06:31:23;;;;;;;4.17;3.30;;;21.10;74.70;;;;;;7369324;19;20431;-74
2022/07/11 06:33:54;;;;;;;4.10;3.30;;;21.20;74.00;;;;;;7367818;19;20372;-73
2022/07/11 06:36:29;;;;;;;4.60;3.40;;;21.10;73.80;;;;;;7379004;19;20380;-73
2022/07/11 06:38:58;;;;;;;4.47;3.30;;;21.10;73.50;;;;;;7377792;19;20410;-74
2022/07/11 06:41:31;;;;;;;6.30;3.07;;;21.10;74.10;;;;;;7375502;19;20717;-79
2022/07/11 06:44:00;;;;;;;5.13;3.60;;;21.30;73.80;;;;;;7374317;19;20925;-81
2022/07/11 06:46:35;;;;;;;3.40;3.10;;;21.40;72.50;;;;;;7381382;19;20368;-81
2022/07/11 06:49:07;;;;;;;5.00;3.70;;;21.50;71.90;;;;;;7369360;19;20918;-81
2022/07/11 06:51:37;;;;;;;3.83;3.33;;;21.60;71.00;;;;;;7378058;19;20384;-79
2022/07/11 06:54:09;;;;;;;5.10;3.50;;;21.60;70.70;;;;;;7379438;19;20910;-81
2022/07/11 06:56:41;;;;;;;4.93;3.53;;;21.90;70.50;;;;;;7366318;19;20421;-82
2022/07/11 06:59:11;;;;;;;4.33;3.30;;;21.80;69.70;;;;;;7384374;19;20376;-81
2022/07/11 07:01:40;;;;;;;4.93;2.77;;;21.90;69.20;;;;;;7378340;19;20372;-82
2022/07/11 07:04:12;;;;;;;6.90;3.80;;;21.90;69.00;;;;;;7382604;19;20379;-80
2022/07/11 07:06:41;;;;;;;5.93;4.10;;;22.10;68.70;;;;;;7379805;19;20425;-82
2022/07/11 07:09:11;;;;;;;6.40;3.40;;;22.20;68.00;;;;;;7385198;19;20753;-81
2022/07/11 07:11:43;;;;;;;4.40;2.93;;;22.10;67.30;;;;;;7383996;19;20391;-81
2022/07/11 07:14:17;;;;;;;5.10;3.03;;;22.20;67.00;;;;;;7386199;19;20419;-81
2022/07/11 07:16:46;;;;;;;4.10;3.67;;;22.30;66.70;;;;;;7382469;19;20379;-82
2022/07/11 07:19:16;;;;;;;3.97;3.40;;;22.30;66.80;;;;;;7379210;19;20557;-82
2022/07/11 07:21:45;;;;;;;3.77;2.90;;;22.10;67.10;;;;;;7382453;19;20375;-81
2022/07/11 07:24:17;;;;;;;3.97;3.07;;;22.20;65.80;;;;;;7369543;19;20394;-83
2022/07/11 07:26:49;;;;;;;3.00;2.70;;;22.20;65.60;;;;;;7382315;19;20450;-83
2022/07/11 07:29:25;;;;;;;3.43;2.70;;;22.20;65.40;;;;;;7381456;19;20387;-82
2022/07/11 07:31:55;;;;;;;4.23;2.77;;;22.10;66.50;;;;;;7388837;19;21067;-82
2022/07/11 07:34:26;;;;;;;3.60;3.00;;;22.30;65.90;;;;;;7386046;19;20416;-83
2022/07/11 07:36:56;;;;;;;5.10;3.30;;;22.20;65.60;;;;;;7383094;19;20459;-81
2022/07/11 07:39:25;;;;;;;3.53;2.80;;;22.50;65.20;;;;;;7384491;19;20408;-82
2022/07/11 07:41:58;;;;;;;6.50;3.50;;;22.60;64.60;;;;;;7376541;19;20491;-82
2022/07/11 07:44:35;;;;;;;5.37;3.40;;;22.90;64.00;;;;;;7389679;19;20412;-85
2022/07/11 07:47:09;;;;;;;3.57;3.23;;;23.20;63.10;;;;;;7372757;19;20893;-84
2022/07/11 07:49:41;;;;;;;4.77;2.60;;;23.50;61.70;;;;;;7378999;19;20384;-83
2022/07/11 07:52:10;;;;;;;4.70;3.93;;;23.70;60.80;;;;;;7382123;19;20413;-83
2022/07/11 07:54:40;;;;;;;10.93;9.03;;;24.00;59.90;;;;;;7380458;19;20410;-83
2022/07/11 07:57:12;;;;;;;2.60;2.40;;;24.10;59.70;;;;;;7381452;19;20545;-81
2022/07/11 07:59:41;;;;;;;5.53;3.13;;;24.20;58.90;;;;;;7372408;19;20373;-82
2022/07/11 08:02:13;;;;;;;3.37;2.30;;;24.40;58.20;;;;;;7383071;19;20382;-82
2022/07/11 08:04:47;;;;;;;5.43;4.20;;;24.60;56.70;;;;;;7386699;19;20388;-83
2022/07/11 08:07:17;;;;;;;3.10;2.27;;;24.70;56.80;;;;;;7387526;19;20360;-82
2022/07/11 08:09:46;;;;;;;3.47;2.73;;;25.00;56.20;;;;;;7389328;19;20364;-83
2022/07/11 08:12:20;;;;;;;2.57;2.37;;;25.00;55.30;;;;;;7388643;19;21037;-82
2022/07/11 08:14:53;;;;;;;4.00;2.63;;;25.20;55.10;;;;;;7386526;19;20917;-82
2022/07/11 08:17:25;;;;;;;3.83;3.00;;;25.30;54.60;;;;;;7388718;19;20379;-82
2022/07/11 08:19:56;;;;;;;2.73;1.50;;;25.30;54.00;;;;;;7389015;19;20412;-82
2022/07/11 08:22:26;;;;;;;2.40;2.20;;;25.20;53.90;;;;;;7384061;19;20416;-82
2022/07/11 08:24:55;;;;;;;2.07;1.93;;;25.20;54.10;;;;;;7386714;19;20368;-82
2022/07/11 08:27:27;;;;;;;2.50;1.80;;;25.20;53.60;;;;;;7387259;19;20778;-82
2022/07/11 08:29:59;;;;;;;3.73;3.17;;;24.80;53.50;;;;;;7388234;19;20400;-83
2022/07/11 08:32:31;;;;;;;2.50;2.30;;;24.50;55.30;;;;;;7384994;19;20389;-82
2022/07/11 08:35:00;;;;;;;3.33;2.97;;;24.60;54.80;;;;;;7378271;19;20371;-83
2022/07/11 08:37:31;;;;;;;8.10;5.47;;;24.70;55.00;;;;;;7386565;19;20404;-82
2022/07/11 08:40:04;;;;;;;4.33;2.23;;;24.70;54.70;;;;;;7387499;19;20451;-82
2022/07/11 08:42:45;;;;;;;3.17;1.70;;;24.80;54.80;;;;;;7385404;19;20447;-83
2022/07/11 08:45:18;;;;;;;2.17;1.40;;;25.00;54.00;;;;;;7387843;19;20933;-83
2022/07/11 08:47:52;;;;;;;17.40;8.00;;;25.20;53.30;;;;;;7386039;19;20407;-82
2022/07/11 08:50:23;;;;;;;16.70;3.90;;;25.60;53.10;;;;;;7386755;19;20419;-80
2022/07/11 08:52:56;;;;;;;12.33;3.40;;;26.00;52.30;;;;;;7385527;19;20368;-80
2022/07/11 08:55:26;;;;;;;8.17;1.93;;;26.30;51.00;;;;;;7385839;19;20419;-79
2022/07/11 08:58:01;;;;;;;2.63;1.60;;;26.50;50.40;;;;;;7364264;19;20569;-81
2022/07/11 09:00:31;;;;;;;4.77;1.50;;;26.80;49.70;;;;;;7387698;19;20404;-81
2022/07/11 09:03:02;;;;;;;2.20;1.53;;;27.20;48.60;;;;;;7383601;19;20411;-82
2022/07/11 09:05:34;;;;;;;1.97;1.77;;;27.60;47.40;;;;;;7385582;19;20376;-82
2022/07/11 09:08:06;;;;;;;3.30;1.30;;;28.00;46.00;;;;;;7380506;19;20416;-83
2022/07/11 09:10:42;;;;;;;3.20;1.37;;;28.50;45.40;;;;;;7385784;19;20376;-82
2022/07/11 09:13:17;;;;;;;2.60;1.33;;;28.80;44.10;;;;;;7386630;19;20414;-82
2022/07/11 09:15:50;;;;;;;2.40;1.30;;;28.80;43.50;;;;;;7384291;19;20443;-83
2022/07/11 09:18:34;;;;;;;1.50;1.20;;;28.70;43.90;;;;;;7385833;19;20380;-82
2022/07/11 09:26:34;;;;;;;2.17;1.10;;;29.00;42.80;;;;;;7383508;19;20931;-82
2022/07/11 09:29:08;;;;;;;1.03;0.93;;;28.90;42.70;;;;;;7379717;19;20438;-80
2022/07/11 09:31:39;;;;;;;1.57;1.20;;;28.80;43.20;;;;;;7380956;19;20468;-82
2022/07/11 09:34:10;;;;;;;2.00;1.40;;;29.20;42.80;;;;;;7384588;19;20473;-84
2022/07/11 09:36:44;;;;;;;1.40;1.23;;;29.30;42.60;;;;;;7381838;19;20392;-83
2022/07/11 09:39:18;;;;;;;2.03;1.60;;;29.20;43.10;;;;;;7383125;19;20439;-83
2022/07/11 09:41:50;;;;;;;3.67;1.30;;;29.20;42.80;;;;;;7381858;19;20458;-82
2022/07/11 09:44:28;;;;;;;2.23;1.63;;;29.00;43.10;;;;;;7384373;19;20414;-82
2022/07/11 09:47:00;;;;;;;1.83;1.43;;;29.00;44.00;;;;;;7383606;19;20400;-82
2022/07/11 09:49:34;;;;;;;1.37;1.17;;;29.50;43.70;;;;;;7384160;19;20435;-82
2022/07/11 09:52:13;;;;;;;2.50;1.20;;;30.00;42.00;;;;;;7382946;19;20379;-83
2022/07/11 09:54:56;;;;;;;1.30;1.20;;;29.80;42.00;;;;;;7383741;19;20768;-82
2022/07/11 09:57:36;;;;;;;1.67;1.00;;;29.70;41.80;;;;;;7376446;19;20455;-82
2022/07/11 10:00:12;;;;;;;2.10;1.40;;;29.50;43.10;;;;;;7385937;19;20462;-82
2022/07/11 10:02:44;;;;;;;1.63;1.40;;;29.20;43.10;;;;;;7384283;19;20372;-82
2022/07/11 10:05:16;;;;;;;2.13;1.20;;;28.80;43.30;;;;;;7384583;19;20388;-82
2022/07/11 10:07:46;;;;;;;1.10;1.00;;;28.40;43.80;;;;;;7383592;19;20376;-82
2022/07/11 10:10:16;;;;;;;1.50;1.10;;;28.20;44.10;;;;;;7383996;19;20372;-83
2022/07/11 10:12:53;;;;;;;1.07;0.97;;;28.00;44.00;;;;;;7380652;19;20805;-83
2022/07/11 10:15:30;;;;;;;1.87;1.20;;;27.80;44.00;;;;;;7381624;19;20383;-82
2022/07/11 10:18:09;;;;;;;1.33;1.03;;;27.50;44.30;;;;;;7383838;19;20970;-82
2022/07/11 10:20:44;;;;;;;3.87;1.63;;;27.40;44.70;;;;;;7384163;19;20372;-81
2022/07/11 10:23:22;;;;;;;2.43;1.67;;;27.40;45.20;;;;;;7370653;19;20380;-84
2022/07/11 10:26:00;;;;;;;2.73;0.90;;;27.70;44.70;;;;;;7381134;19;20364;-84
2022/07/11 10:28:41;;;;;;;1.27;1.00;;;27.90;45.10;;;;;;7382271;19;20372;-84
2022/07/11 10:31:23;;;;;;;1.47;1.00;;;27.60;44.80;;;;;;7379647;19;20511;-84
2022/07/11 10:34:05;;;;;;;2.43;0.93;;;27.80;44.30;;;;;;7384089;19;20387;-84
2022/07/11 10:36:36;;;;;;;1.10;0.97;;;27.80;44.70;;;;;;7383130;19;20360;-84
2022/07/11 10:39:19;;;;;;;1.00;0.80;;;27.60;44.70;;;;;;7371121;19;20756;-83
2022/07/11 10:41:48;;;;;;;2.50;1.00;;;28.30;44.70;;;;;;7379799;19;20380;-82
2022/07/11 10:44:21;;;;;;;1.30;0.93;;;29.90;41.20;;;;;;7389952;19;20383;-82
2022/07/11 10:46:55;;;;;;;3.03;1.20;;;31.00;39.00;;;;;;7390617;19;20402;-82
2022/07/11 10:49:43;;;;;;;1.57;1.47;;;32.20;37.30;;;;;;7386373;19;20475;-82
2022/07/11 10:52:12;;;;;;;0.93;0.77;;;32.80;36.30;;;;;;7385951;19;20367;-82
2022/07/11 10:55:05;;;;;;;1.80;1.00;;;32.50;36.00;;;;;;7391576;19;21080;-82
2022/07/11 10:57:45;;;;;;;1.43;0.90;;;32.20;36.60;;;;;;7387088;19;20814;-82
2022/07/11 11:00:16;;;;;;;0.83;0.83;;;31.60;37.40;;;;;;7377316;19;21265;-82
2022/07/11 11:03:07;;;;;;;1.53;0.90;;;31.20;37.80;;;;;;7384412;19;20410;-83
2022/07/11 11:05:52;;;;;;;2.07;1.70;;;30.90;38.30;;;;;;7378536;19;20790;-82
2022/07/11 11:08:43;;;;;;;5.20;4.50;;;30.70;38.90;;;;;;7387392;19;20798;-82
2022/07/11 11:11:40;;;;;;;4.30;1.53;;;30.80;38.60;;;;;;7388741;19;20411;-81
2022/07/11 11:14:27;;;;;;;1.23;1.13;;;30.10;40.30;;;;;;7390622;19;20412;-82
2022/07/11 11:16:58;;;;;;;128.07;15.10;;;29.30;40.60;;;;;;7391835;19;20376;-82
2022/07/11 11:19:57;;;;;;;8.43;2.60;;;29.00;40.90;;;;;;7390059;19;20761;-82
2022/07/11 11:22:30;;;;;;;3.33;2.13;;;29.10;41.20;;;;;;7387459;19;20411;-82
2022/07/11 11:25:02;;;;;;;1.67;1.57;;;29.00;41.10;;;;;;7381443;19;20367;-82
2022/07/11 11:27:32;;;;;;;1.63;1.27;;;29.00;41.20;;;;;;7391182;19;20714;-81
2022/07/11 11:30:01;;;;;;;1.63;1.53;;;29.20;41.40;;;;;;7380205;19;20893;-82
2022/07/11 11:32:34;;;;;;;1.00;0.80;;;29.50;40.50;;;;;;7380876;19;21479;-81
2022/07/11 11:35:08;;;;;;;1.50;1.40;;;30.20;40.30;;;;;;7385584;19;20380;-81
2022/07/11 11:37:38;;;;;;;1.63;1.30;;;30.80;38.60;;;;;;7383827;19;20380;-81
2022/07/11 11:40:09;;;;;;;1.37;0.87;;;31.40;37.90;;;;;;7388502;19;20390;-81
2022/07/11 11:42:38;;;;;;;2.03;1.20;;;32.60;36.50;;;;;;7389448;19;20387;-82
2022/07/11 11:45:11;;;;;;;1.17;1.00;;;33.80;35.00;;;;;;7387143;19;20387;-81
2022/07/11 11:47:50;;;;;;;1.33;1.00;;;34.80;33.50;;;;;;7384389;19;20380;-81
2022/07/11 11:50:22;;;;;;;3.43;1.20;;;36.00;32.00;;;;;;7384012;19;21362;-81
2022/07/11 11:52:52;;;;;;;1.10;1.00;;;36.90;30.70;;;;;;7389376;19;20387;-83
2022/07/11 11:55:22;;;;;;;1.37;0.97;;;38.00;29.40;;;;;;7387227;19;20424;-82
2022/07/11 11:57:52;;;;;;;0.90;0.70;;;38.80;28.60;;;;;;7382113;19;20590;-80
2022/07/11 12:00:29;;;;;;;1.43;0.80;;;39.30;28.00;;;;;;7389033;19;20374;-80
2022/07/11 12:03:01;;;;;;;1.83;1.23;;;39.20;28.10;;;;;;7389124;19;20376;-80
2022/07/11 12:05:36;;;;;;;1.63;1.37;;;38.90;28.30;;;;;;7386506;19;20741;-82
2022/07/11 12:08:05;;;;;;;1.20;0.87;;;39.10;27.90;;;;;;7388789;19;20459;-80
2022/07/11 12:10:37;;;;;;;1.27;0.83;;;39.10;28.00;;;;;;7387310;19;20384;-81
2022/07/11 12:13:12;;;;;;;1.60;0.93;;;39.90;27.40;;;;;;7384529;19;20451;-81
2022/07/11 12:18:26;;;;;;;1.17;1.07;;;39.40;27.30;;;;;;7374911;19;20404;-81
2022/07/11 12:21:12;;;;;;;1.40;1.00;;;37.80;28.70;;;;;;7383866;19;20754;-80
2022/07/11 12:23:41;;;;;;;1.33;1.23;;;36.10;30.20;;;;;;7386303;19;20398;-80
2022/07/11 12:26:12;;;;;;;1.53;1.07;;;34.70;31.90;;;;;;7387961;19;20737;-80
2022/07/11 12:29:10;;;;;;;1.93;1.53;;;34.00;33.10;;;;;;7390655;19;20423;-82
2022/07/11 12:31:46;;;;;;;1.87;1.33;;;33.30;34.40;;;;;;7388168;19;20383;-82
2022/07/11 12:34:19;;;;;;;1.47;1.10;;;33.10;34.70;;;;;;7384214;19;20491;-82
2022/07/11 12:36:53;;;;;;;1.97;1.00;;;32.80;34.70;;;;;;7387440;19;21094;-80
2022/07/11 12:39:26;;;;;;;2.67;1.20;;;32.30;35.50;;;;;;7387937;19;20383;-83
2022/07/11 12:41:56;;;;;;;1.50;1.17;;;32.10;35.80;;;;;;7361817;19;20982;-83
2022/07/11 12:47:27;;;;;;;1.47;1.37;;;32.30;36.40;;;;;;7381153;19;20422;-82
2022/07/11 12:49:59;;;;;;;3.33;1.30;;;33.00;35.00;;;;;;7381469;19;20942;-81
2022/07/11 12:52:45;;;;;;;1.70;1.20;;;33.20;34.50;;;;;;7387410;19;20733;-84
2022/07/11 12:55:23;;;;;;;1.40;1.30;;;32.90;34.90;;;;;;7382885;19;20380;-83
2022/07/11 12:58:09;;;;;;;1.50;1.27;;;32.60;35.60;;;;;;7384186;19;20891;-82
2022/07/11 13:00:46;;;;;;;2.83;2.07;;;32.10;36.60;;;;;;7380697;19;20416;-82
2022/07/11 13:03:17;;;;;;;2.00;1.80;;;31.80;36.90;;;;;;7384101;19;21225;-81
2022/07/11 13:05:51;;;;;;;2.20;2.00;;;31.60;37.20;;;;;;7374008;19;20738;-83
2022/07/11 13:08:42;;;;;;;2.03;1.60;;;31.60;37.30;;;;;;7386705;19;20418;-83
2022/07/11 13:11:16;;;;;;;1.77;1.60;;;31.30;37.90;;;;;;7387262;19;20388;-81
2022/07/11 13:13:46;;;;;;;2.10;1.90;;;31.10;38.30;;;;;;7383174;19;20736;-83
2022/07/11 13:16:16;;;;;;;1.70;1.47;;;30.90;38.50;;;;;;7377233;19;20392;-83
2022/07/11 13:18:51;;;;;;;2.70;1.87;;;31.00;38.70;;;;;;7357772;19;20510;-83
2022/07/11 13:21:22;;;;;;;2.77;2.00;;;31.00;38.70;;;;;;7385888;19;20381;-82
2022/07/11 13:23:57;;;;;;;3.33;2.00;;;31.00;38.80;;;;;;7385920;19;20389;-82
2022/07/11 13:26:39;;;;;;;2.80;1.70;;;31.30;38.60;;;;;;7415144;19;21155;-50